AKDT,Max TemperatureF,Mean TemperatureF,Min TemperatureF,Max Dew PointF,MeanDew PointF,Min DewpointF,Max Humidity, Mean Humidity, Min Humidity, Max Sea Level PressureIn, Mean Sea Level PressureIn, Min Sea Level PressureIn, Max VisibilityMiles, Mean VisibilityMiles, Min VisibilityMiles, Max Wind SpeedMPH, Mean Wind SpeedMPH, Max Gust SpeedMPH,PrecipitationIn, CloudCover, Events, WindDirDegrees
2012-10-1,50,42,34,36,31,28,93,72,43,30.41,30.24,30.08,10,10,10,13,8,20,0.00,1,,15
2012-10-2,46,42,39,42,40,36,97,89,76,30.42,30.34,30.24,10,9,4,18,4,28,0.28,8,Rain,211
2012-10-3,46,44,41,45,42,40,100,95,86,30.29,30.22,30.11,10,8,2,5,1,,0.40,8,Rain,315
2012-10-4,53,48,44,50,47,43,100,95,86,30.23,30.10,30.06,10,8,2,22,2,26,0.22,8,Rain,199
2012-10-5,51,48,46,49,47,45,100,95,86,30.29,30.20,30.14,10,5,0,18,7,24,0.94,8,Fog-Rain,186
2012-10-6,53,49,46,49,47,45,100,94,83,30.34,30.20,30.13,10,6,1,5,0,,0.56,7,Rain,155
2012-10-7,48,47,46,48,47,45,100,97,93,30.35,30.33,30.30,10,6,0,12,1,,0.09,8,Fog-Rain,158
2012-10-8,51,48,46,48,47,45,100,94,86,30.30,30.21,30.14,10,8,1,10,1,,0.00,8,,169
2012-10-9,54,50,45,45,43,41,87,80,71,30.12,30.07,30.03,10,10,9,24,16,36,0.00,0,,10
2012-10-10,50,44,39,43,40,37,93,87,74,30.04,29.99,29.90,10,10,10,24,11,32,0.00,4,,349
2012-10-11,54,45,36,38,35,30,93,79,41,29.89,29.73,29.52,10,10,10,13,8,21,0.00,2,,358
2012-10-12,50,41,34,33,31,28,86,75,52,29.50,29.23,29.10,10,10,10,13,9,17,0.00,2,,1
2012-10-13,39,36,34,35,30,27,93,79,65,29.15,29.10,29.03,10,10,10,16,9,23,0.07,6,Rain,9
2012-10-14,46,41,36,41,37,34,97,86,71,29.13,28.98,28.88,10,10,7,14,8,22,0.14,8,Rain,360
2012-10-15,46,39,33,37,34,30,100,82,65,29.03,28.99,28.95,10,10,10,17,7,29,0.03,7,Rain,359
2012-10-16,39,34,30,30,25,22,86,69,57,29.50,29.21,29.01,10,6,0,24,17,33,0.02,7,Snow,352
2012-10-17,42,34,28,25,23,21,82,65,45,29.68,29.62,29.52,10,10,10,20,11,31,0.00,2,,358
2012-10-18,37,34,32,23,17,14,59,50,39,29.78,29.72,29.63,10,10,10,21,15,33,0.00,0,,349
2012-10-19,37,32,28,19,18,16,67,54,41,30.03,29.90,29.79,10,10,10,18,14,31,0.00,0,,10
2012-10-20,39,34,30,18,16,14,59,48,38,30.24,30.16,30.05,10,10,10,21,13,30,0.00,0,,15
2012-10-21,37,32,27,16,14,11,61,50,36,30.30,30.28,30.26,10,10,10,20,14,32,0.00,0,,16
2012-10-22,37,28,21,17,15,10,81,59,37,30.27,30.23,30.18,10,10,10,21,12,34,0.00,0,,8
2012-10-23,36,30,23,16,13,9,72,53,34,30.24,30.19,30.17,10,10,10,20,16,32,0.00,0,,18
2012-10-24,39,30,21,17,15,12,78,61,36,30.41,30.30,30.25,10,10,10,15,9,,0.00,0,,351
2012-10-25,43,34,25,20,17,14,66,54,35,30.48,30.45,30.42,10,10,10,15,9,21,0.00,2,,5
2012-10-26,39,32,26,20,18,15,75,60,38,30.44,30.32,30.17,10,10,10,16,13,24,0.00,0,,18
2012-10-27,39,30,23,18,16,14,78,59,41,30.17,30.05,29.97,10,10,10,16,12,26,0.00,0,,4
2012-10-28,43,32,23,19,18,16,78,62,35,30.02,29.96,29.93,10,10,10,17,10,22,0.00,0,,356
2012-10-29,39,29,19,26,21,16,89,74,53,30.01,29.88,29.74,10,10,10,9,5,23,0.00,5,,352
2012-10-30,37,33,28,23,14,8,61,48,37,29.74,29.59,29.49,10,10,8,25,15,40,0.00,5,,332
2012-10-31,30,28,25,17,10,7,63,48,41,29.59,29.50,29.47,10,10,10,22,18,33,0.00,5,,350